KGAI/GAI METAR and TAF weather

Enter ICAO airport designator
Station Type Date Time Source
KGAI METAR 2021/07/29 01:56 UTC NOAA

KGAI 290156Z AUTO VRB03KT 10SM VCTS -RA FEW009 BKN110 21/20 A3002 RMK AO2 LTG DSNT S TSE11B20RAB07 SLP173 P0015 T02110200


Station Type Date Time Source
KGAI Decoded METAR 2021/07/29 01:56 UTC NOAA

Station name not available
Jul 28, 2021 - 09:56 PM EDT / 2021.07.29 0156 UTC
Wind: Variable at 3 MPH (3 KT):0
Visibility: 10 mile(s):0
Sky conditions: mostly cloudy
Weather: thunder in the vicinity; light rain; Lightning observed
Precipitation last hour: 0.15 inches
Temperature: 70.0 F (21.1 C)
Dew Point: 68.0 F (20.0 C)
Relative Humidity: 93%
Pressure (altimeter): 30.02 in. Hg (1016 hPa)
ob: KGAI 290156Z AUTO VRB03KT 10SM VCTS -RA FEW009 BKN110 21/20 A3002 RMK AO2 LTG DSNT S TSE11B20RAB07 SLP173 P0015 T02110200
cycle: 2

Station Type Date Time Source
KGAI TAF UTC NOAA

Error!

Example: see airport list